Mare Frisium — PCBM — position and weather

sailwx.info

Track history (hours):
 
Tides and Currents Weather Stations Pressure Air Temp Water Temp Dewpoint Dewpoint Depression Visibility Wind Speed Wind Dir Waves Ship Positions

Mare Frisium (Netherlands)

Ship's website: http://www.tallship-company.com/mare-frisium-2/

Last reported at 2018-May-23 21:57 UTC. Time now 2018-May-23 22:25 UTC.
Position N 53°33' E 009°59'.

Length 49 m; draft 2.7 m.

Type: Sailing vessel. MMSI: 244596000.

Date/timePositionNaut miles runAvg speedWind from/ knotsBaromVisibWave heightAir tempDewpointWater temp
2018-May-23 21:57N 53°33' E 009°59'1 2.2
2018-May-23 21:30N 53°33' E 009°57'2 4.8
2018-May-23 21:00N 53°32' E 009°53'3 5.1
2018-May-23 20:30N 53°33' E 009°49'0 0.3
2018-May-23 20:00N 53°33' E 009°49'1 1.0
2018-May-23 19:30N 53°33' E 009°50'1 1.4
2018-May-23 19:00N 53°33' E 009°51'1 1.9
2018-May-23 18:30N 53°33' E 009°52'1 2.7
2018-May-23 18:00N 53°33' E 009°55'1 2.4
2018-May-23 17:31N 53°33' E 009°57'1 2.9
2018-May-23 17:00N 53°32' E 009°59'0 0.5
2018-May-23 16:30N 53°33' E 009°59'0 0.0
2018-May-23 16:00N 53°33' E 009°59'0 0.0
2018-May-23 15:30N 53°33' E 009°59'0 0.0
2018-May-23 15:00N 53°33' E 009°59'0 0.0
2018-May-23 14:30N 53°33' E 009°59'0 0.2
2018-May-23 14:00N 53°33' E 009°59'0 0.0
2018-May-23 13:30N 53°33' E 009°59'0 0.0
2018-May-23 13:00N 53°33' E 009°59'0 0.0
2018-May-23 12:30N 53°33' E 009°59'0 0.0
2018-May-23 12:00N 53°33' E 009°59'0 0.0
2018-May-23 11:30N 53°33' E 009°59'0 0.0
2018-May-23 11:00N 53°33' E 009°59'0 0.0
2018-May-23 10:30N 53°33' E 009°59'0 0.0
2018-May-23 10:00N 53°33' E 009°59'0 0.0
2018-May-23 09:30N 53°33' E 009°59'0 0.0
2018-May-23 09:00N 53°33' E 009°59'0 0.0
2018-May-23 08:30N 53°33' E 009°59'0 0.0
2018-May-23 08:00N 53°33' E 009°59'0 0.0
2018-May-23 07:30N 53°33' E 009°59'0 0.0
2018-May-23 07:00N 53°33' E 009°59'0 0.0
2018-May-23 06:30N 53°33' E 009°59'0 0.0
2018-May-23 06:00N 53°33' E 009°59'0 0.0
2018-May-23 05:30N 53°33' E 009°59'0 0.0
2018-May-23 05:00N 53°33' E 009°59'0 0.0
2018-May-23 04:30N 53°33' E 009°59'0 0.0
2018-May-23 04:00N 53°33' E 009°59'0 0.0
2018-May-23 03:30N 53°33' E 009°59'0 0.0
2018-May-23 03:00N 53°33' E 009°59'0 0.0
2018-May-23 02:30N 53°33' E 009°59'0 0.0
2018-May-23 02:00N 53°33' E 009°59'0 0.0
2018-May-23 01:30N 53°33' E 009°59'0 0.0
2018-May-23 01:00N 53°33' E 009°59'0 0.0
2018-May-23 00:28N 53°33' E 009°59'0 0.0
2018-May-22 23:56N 53°33' E 009°59'0 0.0
2018-May-22 23:28N 53°33' E 009°59'0 0.0
2018-May-22 22:58N 53°33' E 009°59'0 0.0
2018-May-22 22:28N 53°33' E 009°59'0 0.0
2018-May-22 21:58N 53°33' E 009°59'0 0.0
2018-May-22 21:28N 53°33' E 009°59'0 0.0
2018-May-22 20:58N 53°33' E 009°59'0 0.0
2018-May-22 20:28N 53°33' E 009°59'0 0.0
2018-May-22 19:58N 53°33' E 009°59'0 0.0
2018-May-22 19:28N 53°33' E 009°59'0 0.0
2018-May-22 18:58N 53°33' E 009°59'0 0.0
2018-May-22 18:28N 53°33' E 009°59'0 0.0
2018-May-22 17:58N 53°33' E 009°59'0 0.0
2018-May-22 17:28N 53°33' E 009°59'0 0.0
2018-May-22 16:58N 53°33' E 009°59'0 0.0
2018-May-22 16:29N 53°33' E 009°59'0 0.0
2018-May-22 15:59N 53°33' E 009°59'0 0.0
2018-May-22 15:29N 53°33' E 009°59'0 0.0
2018-May-22 14:59N 53°33' E 009°59'0 0.0
2018-May-22 14:29N 53°33' E 009°59'0 0.0
2018-May-22 13:59N 53°33' E 009°59'0 0.0
2018-May-22 13:29N 53°33' E 009°59'0 0.0
2018-May-22 12:59N 53°33' E 009°59'0 0.0
2018-May-22 12:29N 53°33' E 009°59'0 0.0
2018-May-22 11:59N 53°33' E 009°59'0 0.0
2018-May-22 11:29N 53°33' E 009°59'0 0.0
2018-May-22 10:59N 53°33' E 009°59'0 0.0
2018-May-22 10:29N 53°33' E 009°59'0 0.0
2018-May-22 09:59N 53°33' E 009°59'0 0.0
2018-May-22 09:29N 53°33' E 009°59'0 0.0
2018-May-22 08:59N 53°33' E 009°59'0 0.0
2018-May-22 08:29N 53°33' E 009°59'0 0.0
2018-May-22 07:59N 53°33' E 009°59'0 0.0
2018-May-22 07:29N 53°33' E 009°59'0 0.0
2018-May-22 06:59N 53°33' E 009°59'0 0.0
2018-May-22 06:29N 53°33' E 009°59'0 0.0
2018-May-22 05:59N 53°33' E 009°59'0 0.0
2018-May-22 05:29N 53°33' E 009°59'0 0.0
2018-May-22 04:59N 53°33' E 009°59'0 0.0
2018-May-22 04:29N 53°33' E 009°59'0 0.0
2018-May-22 03:59N 53°33' E 009°59'0 0.0
2018-May-22 03:26N 53°33' E 009°59'0 0.0
2018-May-22 02:59N 53°33' E 009°59'0 0.0
2018-May-22 02:29N 53°33' E 009°59'0 0.0
2018-May-22 01:59N 53°33' E 009°59'0 0.0
2018-May-22 01:29N 53°33' E 009°59'0 0.0
2018-May-22 00:59N 53°33' E 009°59'0 0.0
2018-May-22 00:29N 53°33' E 009°59'0 0.0
2018-May-21 23:59N 53°33' E 009°59'0 0.0
2018-May-21 23:29N 53°33' E 009°59'0 0.0
2018-May-21 22:59N 53°33' E 009°59'0 0.0
2018-May-21 22:29N 53°33' E 009°59'0 0.0
2018-May-21 21:59N 53°33' E 009°59'0 0.0
2018-May-21 21:29N 53°33' E 009°59'0 0.0
2018-May-21 20:59N 53°33' E 009°59'0 0.0
2018-May-21 20:29N 53°33' E 009°59'0 0.0
2018-May-21 19:56N 53°33' E 009°59'0 0.0
2018-May-21 19:29N 53°33' E 009°59'0 0.0
2018-May-21 18:59N 53°33' E 009°59'0 0.0
2018-May-21 18:29N 53°33' E 009°59'0 0.0
2018-May-21 17:59N 53°33' E 009°59'0 0.0
2018-May-21 17:29N 53°33' E 009°59'0 0.0
2018-May-21 16:59N 53°33' E 009°59'0 0.0
2018-May-21 16:29N 53°33' E 009°59'0 0.0
2018-May-21 15:59N 53°33' E 009°59'0 0.0
2018-May-21 15:29N 53°33' E 009°59'0 0.0
2018-May-21 14:59N 53°33' E 009°59'0 0.0
2018-May-21 14:29N 53°33' E 009°59'0 0.0
2018-May-21 13:59N 53°33' E 009°59'0 0.0
2018-May-21 13:29N 53°33' E 009°59'0 0.0
2018-May-21 12:59N 53°33' E 009°59'0 0.0
2018-May-21 12:29N 53°33' E 009°59'0 0.0
2018-May-21 11:59N 53°33' E 009°59'0 0.0
2018-May-21 11:29N 53°33' E 009°59'0 0.0
2018-May-21 10:59N 53°33' E 009°59'0 0.0
2018-May-21 10:29N 53°33' E 009°59'0 0.0
2018-May-21 09:59N 53°33' E 009°59'0 0.0
2018-May-21 09:29N 53°33' E 009°59'0 0.0
2018-May-21 08:59N 53°33' E 009°59'0 0.0
2018-May-21 08:29N 53°33' E 009°59'0 0.0
2018-May-21 07:59N 53°33' E 009°59'0 0.0
2018-May-21 07:29N 53°33' E 009°59'0 0.0
2018-May-21 06:59N 53°33' E 009°59'0 0.0
2018-May-21 06:29N 53°33' E 009°59'0 0.0
2018-May-21 05:59N 53°33' E 009°59'0 0.0
2018-May-21 05:29N 53°33' E 009°59'0 0.0
2018-May-21 04:59N 53°33' E 009°59'0 0.0
2018-May-21 04:29N 53°33' E 009°59'0 0.0
2018-May-21 03:59N 53°33' E 009°59'0 0.0
2018-May-21 03:29N 53°33' E 009°59'0 0.0
2018-May-21 02:59N 53°33' E 009°59'0 0.0
2018-May-21 02:29N 53°33' E 009°59'0 0.0
2018-May-21 01:59N 53°33' E 009°59'0 0.0
2018-May-21 01:29N 53°33' E 009°59'0 0.0
2018-May-21 00:59N 53°33' E 009°59'0 0.0
2018-May-21 00:30N 53°33' E 009°59'0 0.0
2018-May-20 23:59N 53°33' E 009°59'0 0.0
2018-May-20 23:29N 53°33' E 009°59'0 0.0
2018-May-20 23:00N 53°33' E 009°59'0 0.0
2018-May-20 22:29N 53°33' E 009°59'0 0.0
2018-May-20 21:59N 53°33' E 009°59'0 0.0
2018-May-20 21:29N 53°33' E 009°59'0 0.0
2018-May-20 21:00N 53°33' E 009°59'0 0.0
2018-May-20 20:29N 53°33' E 009°59'0 0.0
2018-May-20 19:59N 53°33' E 009°59'0 0.0
2018-May-20 19:29N 53°33' E 009°59'0 0.0
2018-May-20 18:59N 53°33' E 009°59'0 0.0
2018-May-20 18:30N 53°33' E 009°59'0 0.0
2018-May-20 18:00N 53°33' E 009°59'0 0.0
2018-May-20 17:30N 53°33' E 009°59'0 0.0
2018-May-20 16:59N 53°33' E 009°59'0 0.0
2018-May-20 16:29N 53°33' E 009°59'0 0.0
2018-May-20 16:00N 53°33' E 009°59'0 0.0
2018-May-20 15:29N 53°33' E 009°59'0 0.0
2018-May-20 15:00N 53°33' E 009°59'0 0.0
2018-May-20 14:30N 53°33' E 009°59'0 0.2
2018-May-20 14:00N 53°33' E 009°59'1 2.8
2018-May-20 13:30N 53°33' E 009°57'3 5.9
2018-May-20 13:00N 53°33' E 009°52'3 5.4
2018-May-20 12:30N 53°33' E 009°47'0 0.5
2018-May-20 12:00N 53°34' E 009°47'3 5.6
2018-May-20 11:30N 53°33' E 009°52'3 5.6
2018-May-20 11:00N 53°33' E 009°56'2 3.7
2018-May-20 10:30N 53°32' E 009°59'0 0.6
2018-May-20 09:59N 53°33' E 009°59'0 0.0
2018-May-20 09:29N 53°33' E 009°59'0 0.0
2018-May-20 08:59N 53°33' E 009°59'0 0.0
2018-May-20 08:29N 53°33' E 009°59'0 0.0
2018-May-20 07:59N 53°33' E 009°59'0 0.1
2018-May-20 07:29N 53°33' E 009°59'0 0.0
2018-May-20 06:59N 53°33' E 009°59'0 0.0
2018-May-20 06:29N 53°33' E 009°59'0 0.0
2018-May-20 05:59N 53°33' E 009°59'0 0.0
2018-May-20 05:29N 53°33' E 009°59'0 0.0
2018-May-20 04:59N 53°33' E 009°59'0 0.0
2018-May-20 04:29N 53°33' E 009°59'0 0.0
2018-May-20 03:59N 53°33' E 009°59'0 0.0
2018-May-20 03:29N 53°33' E 009°59'0 0.0
2018-May-20 02:59N 53°33' E 009°59'0 0.0
2018-May-20 02:29N 53°33' E 009°59'0 0.0
2018-May-20 01:59N 53°33' E 009°59'0 0.0
2018-May-20 01:29N 53°33' E 009°59'0 0.0
2018-May-20 00:59N 53°33' E 009°59'0 0.0
2018-May-20 00:29N 53°33' E 009°59'0 0.0
2018-May-19 23:59N 53°33' E 009°59'0 0.0
2018-May-19 23:29N 53°33' E 009°59'0 0.0
2018-May-19 22:59N 53°33' E 009°59'0 0.0
2018-May-19 22:29N 53°33' E 009°59'0 0.1
2018-May-19 21:59N 53°33' E 009°59'0 0.1
2018-May-19 21:29N 53°33' E 009°59'0 0.0
2018-May-19 20:59N 53°33' E 009°59'0 0.0
2018-May-19 20:29N 53°33' E 009°59'0 0.0
2018-May-19 19:59N 53°33' E 009°59'0 0.0
2018-May-19 19:29N 53°33' E 009°59'0 0.0
2018-May-19 18:59N 53°33' E 009°59'0 0.0
2018-May-19 18:29N 53°33' E 009°59'0 0.0
2018-May-19 17:59N 53°33' E 009°59'0 0.0
2018-May-19 17:29N 53°33' E 009°59'0 0.0
2018-May-19 16:59N 53°33' E 009°59'0 0.0
2018-May-19 16:29N 53°33' E 009°59'0 0.0
2018-May-19 15:59N 53°33' E 009°59'0 0.0
2018-May-19 15:29N 53°33' E 009°59'0 0.0
2018-May-19 14:59N 53°33' E 009°59'0 0.0
2018-May-19 14:29N 53°33' E 009°59'0 0.0
2018-May-19 13:59N 53°33' E 009°59'0 0.0
2018-May-19 13:29N 53°33' E 009°59'0 0.2
2018-May-19 12:59N 53°33' E 009°59'1 2.5
2018-May-19 12:30N 53°33' E 009°57'3 5.6
2018-May-19 12:00N 53°33' E 009°52'3 5.2
2018-May-19 11:30N 53°33' E 009°48'3 5.1
2018-May-19 11:00N 53°34' E 009°44'1 2.9
2018-May-19 10:30N 53°34' E 009°41'4 7.7
2018-May-19 10:00N 53°33' E 009°48'4 7.6
2018-May-19 09:30N 53°33' E 009°54'3 5.6
2018-May-19 08:59N 53°33' E 009°59'0 0.0
2018-May-19 08:29N 53°33' E 009°59'0 0.0
2018-May-19 07:59N 53°33' E 009°59'0 0.0
2018-May-19 07:29N 53°33' E 009°59'0 0.0
2018-May-19 06:59N 53°33' E 009°59'0 0.0
2018-May-19 06:29N 53°33' E 009°59'0 0.2
2018-May-19 05:59N 53°33' E 009°59'0 0.0
2018-May-19 05:29N 53°33' E 009°59'0 0.0
2018-May-19 04:59N 53°33' E 009°59'0 0.0
2018-May-19 04:29N 53°33' E 009°59'0 0.0
2018-May-19 03:59N 53°33' E 009°59'0 0.0
2018-May-19 03:29N 53°33' E 009°59'0 0.0
2018-May-19 02:59N 53°33' E 009°59'0 0.0
2018-May-19 02:29N 53°33' E 009°59'0 0.0
2018-May-19 01:59N 53°33' E 009°59'0 0.0
2018-May-19 01:29N 53°33' E 009°59'0 0.0
2018-May-19 00:59N 53°33' E 009°59'0 0.0
2018-May-19 00:29N 53°33' E 009°59'0 0.0
2018-May-18 23:59N 53°33' E 009°59'0 0.0
2018-May-18 23:29N 53°33' E 009°59'0 0.0
2018-May-18 22:59N 53°33' E 009°59'0 0.0
2018-May-18 22:29N 53°33' E 009°59'0 0.0
2018-May-18 21:59N 53°33' E 009°59'0 0.0
2018-May-18 21:29N 53°33' E 009°59'0 0.0
2018-May-18 20:59N 53°33' E 009°59'0 0.0
2018-May-18 20:29N 53°33' E 009°59'0 0.0
2018-May-18 19:59N 53°33' E 009°59'0 0.0
2018-May-18 19:29N 53°33' E 009°59'0 0.0
2018-May-18 18:59N 53°33' E 009°59'0 0.0
2018-May-18 18:29N 53°33' E 009°59'0 0.0
2018-May-18 17:59N 53°33' E 009°59'0 0.0
2018-May-18 17:29N 53°33' E 009°59'0 0.0
2018-May-18 16:59N 53°33' E 009°59'0 0.0
2018-May-18 16:29N 53°33' E 009°59'0 0.0
2018-May-18 15:59N 53°33' E 009°59'0 0.0
2018-May-18 15:29N 53°33' E 009°59'0 0.0
2018-May-18 14:59N 53°33' E 009°59'0 0.0
2018-May-18 14:29N 53°33' E 009°59'0 0.0
2018-May-18 13:59N 53°33' E 009°59'0 0.0
2018-May-18 13:29N 53°33' E 009°59'0 0.0
2018-May-18 12:59N 53°33' E 009°59'0 0.0
2018-May-18 12:29N 53°33' E 009°59'0 0.0
2018-May-18 11:59N 53°33' E 009°59'0 0.0
2018-May-18 11:29N 53°33' E 009°59'0 0.1
2018-May-18 11:00N 53°33' E 009°59'2 4.1
2018-May-18 10:30N 53°31' E 009°57'1 1.1
2018-May-18 09:59N 53°30' E 009°57'0 0.0
2018-May-18 09:29N 53°30' E 009°57'0 0.0
2018-May-18 08:59N 53°30' E 009°57'1 2.9
2018-May-18 08:31N 53°32' E 009°56'2 3.1
2018-May-18 07:58N 53°33' E 009°59'0 0.0
2018-May-18 07:28N 53°33' E 009°59'0 0.0
2018-May-18 06:58N 53°33' E 009°59'0 0.0
2018-May-18 06:28N 53°33' E 009°59'0 0.0
2018-May-18 05:58N 53°33' E 009°59'0 0.0
2018-May-18 05:28N 53°33' E 009°59'0 0.0
2018-May-18 04:58N 53°33' E 009°59'0 0.0
2018-May-18 04:28N 53°33' E 009°59'0 0.0
2018-May-18 03:58N 53°33' E 009°59'0 0.0
2018-May-18 03:28N 53°33' E 009°59'0 0.0
2018-May-18 02:58N 53°33' E 009°59'0 0.0
2018-May-18 02:28N 53°33' E 009°59'0 0.0
2018-May-18 01:58N 53°33' E 009°59'0 0.0
2018-May-18 01:28N 53°33' E 009°59'0 0.0
2018-May-18 00:58N 53°33' E 009°59'0 0.0
2018-May-18 00:28N 53°33' E 009°59'0 0.0
2018-May-17 23:58N 53°33' E 009°59'0 0.0
2018-May-17 23:28N 53°33' E 009°59'0 0.0
2018-May-17 22:58N 53°33' E 009°59'0 0.0
2018-May-17 22:28N 53°33' E 009°59'0 0.0
2018-May-17 21:58N 53°33' E 009°59'0 0.0
2018-May-17 21:28N 53°33' E 009°59'0 0.0
2018-May-17 20:58N 53°33' E 009°59'0 0.0
2018-May-17 20:28N 53°33' E 009°59'0 0.0
2018-May-17 19:58N 53°33' E 009°59'0 0.0
2018-May-17 19:28N 53°33' E 009°59'0 0.0
2018-May-17 18:58N 53°33' E 009°59'0 0.0
2018-May-17 18:28N 53°33' E 009°59'0 0.0
2018-May-17 17:58N 53°33' E 009°59'0 0.0
2018-May-17 17:28N 53°33' E 009°59'0 0.0
2018-May-17 16:58N 53°33' E 009°59'0 0.0
2018-May-17 16:28N 53°33' E 009°59'0 0.0
2018-May-17 15:58N 53°33' E 009°59'0 0.0
2018-May-17 15:28N 53°33' E 009°59'0 0.0
2018-May-17 14:58N 53°33' E 009°59'0 0.0
2018-May-17 14:28N 53°33' E 009°59'0 0.0
2018-May-17 13:58N 53°33' E 009°59'0 0.0
2018-May-17 13:28N 53°33' E 009°59'0 0.0
2018-May-17 12:58N 53°33' E 009°59'0 0.0
2018-May-17 12:28N 53°33' E 009°59'0 0.0
2018-May-17 11:58N 53°33' E 009°59'0 0.0
2018-May-17 11:28N 53°33' E 009°59'0 0.0
2018-May-17 10:58N 53°33' E 009°59'0 0.0
2018-May-17 10:28N 53°33' E 009°59'0 0.0
2018-May-17 09:58N 53°33' E 009°59'0 0.0
2018-May-17 09:28N 53°33' E 009°59'0 0.0
2018-May-17 08:58N 53°33' E 009°59'0 0.0
2018-May-17 08:28N 53°33' E 009°59'0 0.0
2018-May-17 07:55N 53°33' E 009°59'0 0.0
2018-May-17 07:28N 53°33' E 009°59'0 0.0
2018-May-17 06:58N 53°33' E 009°59'0 0.0
2018-May-17 06:28N 53°33' E 009°59'0 0.0
2018-May-17 05:58N 53°33' E 009°59'0 0.0
2018-May-17 05:28N 53°33' E 009°59'0 0.0
2018-May-17 04:58N 53°33' E 009°59'0 0.0
2018-May-17 04:28N 53°33' E 009°59'0 0.0
2018-May-17 03:58N 53°33' E 009°59'0 0.0
2018-May-17 03:28N 53°33' E 009°59'0 0.0
2018-May-17 02:58N 53°33' E 009°59'0 0.0
2018-May-17 02:28N 53°33' E 009°59'0 0.0
2018-May-17 01:58N 53°33' E 009°59'0 0.0
2018-May-17 01:28N 53°33' E 009°59'0 0.0
2018-May-17 00:58N 53°33' E 009°59'0 0.0
2018-May-17 00:28N 53°33' E 009°59'0 0.0
2018-May-16 23:58N 53°33' E 009°59'0 0.0
2018-May-16 23:28N 53°33' E 009°59'0 0.0
2018-May-16 22:58N 53°33' E 009°59'0 0.0
2018-May-16 22:25N 53°33' E 009°59'0 0.0
2018-May-16 21:58N 53°33' E 009°59'0 0.0
2018-May-16 21:28N 53°33' E 009°59'0 0.0
2018-May-16 20:58N 53°33' E 009°59'0 0.0
2018-May-16 20:28N 53°33' E 009°59'0 0.0
2018-May-16 19:58N 53°33' E 009°59'0 0.5
2018-May-16 19:30N 53°32' E 009°58'2 4.1
2018-May-16 19:00N 53°32' E 009°55'3 5.6
2018-May-16 18:30N 53°33' E 009°50'1 2.5
2018-May-16 18:00N 53°33' E 009°48'1 2.4
2018-May-16 17:30N 53°34' E 009°46'2 3.0
2018-May-16 17:00N 53°34' E 009°44'2 4.9
2018-May-16 16:30N 53°33' E 009°48'2 4.6
2018-May-16 16:00N 53°33' E 009°52'2 4.9
2018-May-16 15:30N 53°33' E 009°56'2 4.5
2018-May-16 15:00N 53°32' E 009°59'1 1.1
2018-May-16 14:30N 53°33' E 009°59'0 0.0
2018-May-16 14:00N 53°33' E 009°59'0 0.0
2018-May-16 13:30N 53°33' E 009°59'0 0.0
2018-May-16 13:00N 53°33' E 009°59'0 0.0
2018-May-16 12:30N 53°33' E 009°59'0 0.0
2018-May-16 12:00N 53°33' E 009°59'0 0.0
2018-May-16 11:30N 53°33' E 009°59'0 0.0
2018-May-16 11:00N 53°33' E 009°59'0 0.0
2018-May-16 10:30N 53°33' E 009°59'0 0.0
2018-May-16 10:00N 53°33' E 009°59'0 0.0
2018-May-16 09:30N 53°33' E 009°59'0 0.0
2018-May-16 09:00N 53°33' E 009°59'0 0.0
2018-May-16 08:30N 53°33' E 009°59'0 0.0
2018-May-16 08:00N 53°33' E 009°59'0 0.0
2018-May-16 07:30N 53°33' E 009°59'0 0.0
2018-May-16 07:00N 53°33' E 009°59'0 0.0
2018-May-16 06:30N 53°33' E 009°59'0 0.0
2018-May-16 06:00N 53°33' E 009°59'0 0.0
2018-May-16 05:30N 53°33' E 009°59'0 0.0
2018-May-16 05:00N 53°33' E 009°59'0 0.0
2018-May-16 04:30N 53°33' E 009°59'0 0.0
2018-May-16 04:00N 53°33' E 009°59'0 0.0
2018-May-16 03:30N 53°33' E 009°59'0 0.0
2018-May-16 03:00N 53°33' E 009°59'0 0.0
2018-May-16 02:30N 53°33' E 009°59'0 0.0
2018-May-16 02:00N 53°33' E 009°59'0 0.0
2018-May-16 01:30N 53°33' E 009°59'0 0.0
2018-May-16 01:00N 53°33' E 009°59'0 0.0
2018-May-16 00:30N 53°33' E 009°59'0 0.0
2018-May-16 00:00N 53°33' E 009°59'0 0.0
2018-May-15 23:30N 53°33' E 009°59'0 0.0
2018-May-15 23:00N 53°33' E 009°59'0 0.0
2018-May-15 22:30N 53°33' E 009°59'0 0.0
2018-May-15 22:00N 53°33' E 009°59'0 0.0
2018-May-15 21:30N 53°33' E 009°59'0 0.0
2018-May-15 21:00N 53°33' E 009°59'0 0.0
2018-May-15 20:30N 53°33' E 009°59'0 0.0
2018-May-15 20:00N 53°33' E 009°59'0 0.0
2018-May-15 19:30N 53°33' E 009°59'0 0.0
2018-May-15 19:00N 53°33' E 009°59'0 0.0
2018-May-15 18:30N 53°33' E 009°59'0 0.0
2018-May-15 18:00N 53°33' E 009°59'0 0.0
2018-May-15 17:31N 53°33' E 009°59'0 0.0
2018-May-15 17:00N 53°33' E 009°59'0 0.0
2018-May-15 16:31N 53°33' E 009°59'0 0.0
2018-May-15 16:00N 53°33' E 009°59'0 0.0
2018-May-15 15:30N 53°33' E 009°59'0 0.0
2018-May-15 15:01N 53°33' E 009°59'0 0.0
2018-May-15 14:30N 53°33' E 009°59'0 0.0
2018-May-15 14:00N 53°33' E 009°59'0 0.0
2018-May-15 13:30N 53°33' E 009°59'0 0.0
2018-May-15 13:00N 53°33' E 009°59'0 0.0
2018-May-15 12:30N 53°33' E 009°59'0 0.0
2018-May-15 12:00N 53°33' E 009°59'0 0.0
2018-May-15 11:30N 53°33' E 009°59'0 0.0
2018-May-15 11:00N 53°33' E 009°59'0 0.0
2018-May-15 10:30N 53°33' E 009°59'0 0.0
2018-May-15 10:00N 53°33' E 009°59'0 0.0
2018-May-15 09:30N 53°33' E 009°59'0 0.0
2018-May-15 09:00N 53°33' E 009°59'0 0.0
2018-May-15 08:30N 53°33' E 009°59'0 0.0
2018-May-15 08:00N 53°33' E 009°59'0 0.0
2018-May-15 07:30N 53°33' E 009°59'0 0.0
2018-May-15 07:00N 53°33' E 009°59'0 0.0
2018-May-15 06:30N 53°33' E 009°59'0 0.0
2018-May-15 06:00N 53°33' E 009°59'0 0.0
2018-May-15 05:30N 53°33' E 009°59'0 0.0
2018-May-15 05:00N 53°33' E 009°59'0 0.0
2018-May-15 04:30N 53°33' E 009°59'0 0.0
2018-May-15 04:00N 53°33' E 009°59'0 0.0
2018-May-15 03:30N 53°33' E 009°59'0 0.0
2018-May-15 03:00N 53°33' E 009°59'0 0.0
2018-May-15 02:30N 53°33' E 009°59'0 0.0
2018-May-15 02:00N 53°33' E 009°59'0 0.0
2018-May-15 01:30N 53°33' E 009°59'0 0.0
2018-May-15 01:00N 53°33' E 009°59'0 0.0
2018-May-15 00:30N 53°33' E 009°59'0 0.0
2018-May-15 00:00N 53°33' E 009°59'0 0.0
2018-May-14 23:30N 53°33' E 009°59'0 0.0
2018-May-14 23:00N 53°33' E 009°59'0 0.0
2018-May-14 22:30N 53°33' E 009°59'0 0.0
2018-May-14 22:00N 53°33' E 009°59'0 0.0
2018-May-14 21:30N 53°33' E 009°59'0 0.0
2018-May-14 21:00N 53°33' E 009°59'0 0.0
2018-May-14 20:30N 53°33' E 009°59'0 0.0
2018-May-14 20:00N 53°33' E 009°59'0 0.0
2018-May-14 19:30N 53°33' E 009°59'0 0.0
2018-May-14 19:00N 53°33' E 009°59'0 0.0
2018-May-14 18:30N 53°33' E 009°59'0 0.0
2018-May-14 18:00N 53°33' E 009°59'0 0.0
2018-May-14 17:30N 53°33' E 009°59'0 0.0
2018-May-14 17:00N 53°33' E 009°59'0 0.0
2018-May-14 16:30N 53°33' E 009°59'0 0.0
2018-May-14 16:00N 53°33' E 009°59'0 0.0
2018-May-14 15:30N 53°33' E 009°59'0 0.0
2018-May-14 15:00N 53°33' E 009°59'0 0.0
2018-May-14 14:30N 53°33' E 009°59'0 0.0
2018-May-14 14:00N 53°33' E 009°59'0 0.0
2018-May-14 13:30N 53°33' E 009°59'0 0.0
2018-May-14 13:00N 53°33' E 009°59'0 0.0
2018-May-14 12:30N 53°33' E 009°59'0 0.0
2018-May-14 12:00N 53°33' E 009°59'0 0.0
2018-May-14 11:30N 53°33' E 009°59'0 0.0
2018-May-14 11:00N 53°33' E 009°59'0 0.0
2018-May-14 10:30N 53°33' E 009°59'0 0.0
2018-May-14 10:00N 53°33' E 009°59'0 0.0
2018-May-14 09:30N 53°33' E 009°59'0 0.0
2018-May-14 09:00N 53°33' E 009°59'0 0.0
2018-May-14 08:30N 53°33' E 009°59'0 0.0
2018-May-14 08:00N 53°33' E 009°59'0 0.0
2018-May-14 07:30N 53°33' E 009°59'0 0.0
2018-May-14 07:00N 53°33' E 009°59'0 0.0
2018-May-14 06:30N 53°33' E 009°59'0 0.0
2018-May-14 06:00N 53°33' E 009°59'0 0.0
2018-May-14 05:30N 53°33' E 009°59'0 0.0
2018-May-14 05:00N 53°33' E 009°59'0 0.0
2018-May-14 04:30N 53°33' E 009°59'0 0.0
2018-May-14 04:00N 53°33' E 009°59'0 0.0
2018-May-14 03:30N 53°33' E 009°59'0 0.0
2018-May-14 03:00N 53°33' E 009°59'0 0.0
2018-May-14 02:30N 53°33' E 009°59'0 0.0
2018-May-14 02:00N 53°33' E 009°59'0 0.0
2018-May-14 01:30N 53°33' E 009°59'0 0.0
2018-May-14 01:00N 53°33' E 009°59'0 0.0
2018-May-14 00:30N 53°33' E 009°59'0 0.0
2018-May-14 00:00N 53°33' E 009°59'0 0.0
2018-May-13 23:30N 53°33' E 009°59'0 0.0
2018-May-13 23:01N 53°33' E 009°59'0 0.0
2018-May-13 22:30N 53°33' E 009°59'0 0.0
2018-May-13 22:00N 53°33' E 009°59'  
Track history (hours):
 
Tides and Currents Weather Stations Pressure Air Temp Water Temp Dewpoint Dewpoint Depression Visibility Wind Speed Wind Dir Waves Ship Positions

Mare Frisium (Netherlands)

Ship's website: http://www.tallship-company.com/mare-frisium-2/

Last reported at 2018-May-23 21:57 UTC. Time now 2018-May-23 22:25 UTC.
Position N 53°33' E 009°59'.

Length 49 m; draft 2.7 m.

Type: Sailing vessel. MMSI: 244596000.

Date/timePositionNaut miles runAvg speedWind from/ knotsBaromVisibWave heightAir tempDewpointWater temp
2018-May-23 21:57N 53°33' E 009°59'1 2.2
2018-May-23 21:30N 53°33' E 009°57'2 4.8
2018-May-23 21:00N 53°32' E 009°53'3 5.1
2018-May-23 20:30N 53°33' E 009°49'0 0.3
2018-May-23 20:00N 53°33' E 009°49'1 1.0
2018-May-23 19:30N 53°33' E 009°50'1 1.4
2018-May-23 19:00N 53°33' E 009°51'1 1.9
2018-May-23 18:30N 53°33' E 009°52'1 2.7
2018-May-23 18:00N 53°33' E 009°55'1 2.4
2018-May-23 17:31N 53°33' E 009°57'1 2.9
2018-May-23 17:00N 53°32' E 009°59'0 0.5
2018-May-23 16:30N 53°33' E 009°59'0 0.0
2018-May-23 16:00N 53°33' E 009°59'0 0.0
2018-May-23 15:30N 53°33' E 009°59'0 0.0
2018-May-23 15:00N 53°33' E 009°59'0 0.0
2018-May-23 14:30N 53°33' E 009°59'0 0.2
2018-May-23 14:00N 53°33' E 009°59'0 0.0
2018-May-23 13:30N 53°33' E 009°59'0 0.0
2018-May-23 13:00N 53°33' E 009°59'0 0.0
2018-May-23 12:30N 53°33' E 009°59'0 0.0
2018-May-23 12:00N 53°33' E 009°59'0 0.0
2018-May-23 11:30N 53°33' E 009°59'0 0.0
2018-May-23 11:00N 53°33' E 009°59'0 0.0
2018-May-23 10:30N 53°33' E 009°59'0 0.0
2018-May-23 10:00N 53°33' E 009°59'0 0.0
2018-May-23 09:30N 53°33' E 009°59'0 0.0
2018-May-23 09:00N 53°33' E 009°59'0 0.0
2018-May-23 08:30N 53°33' E 009°59'0 0.0
2018-May-23 08:00N 53°33' E 009°59'0 0.0
2018-May-23 07:30N 53°33' E 009°59'0 0.0
2018-May-23 07:00N 53°33' E 009°59'0 0.0
2018-May-23 06:30N 53°33' E 009°59'0 0.0
2018-May-23 06:00N 53°33' E 009°59'0 0.0
2018-May-23 05:30N 53°33' E 009°59'0 0.0
2018-May-23 05:00N 53°33' E 009°59'0 0.0
2018-May-23 04:30N 53°33' E 009°59'0 0.0
2018-May-23 04:00N 53°33' E 009°59'0 0.0
2018-May-23 03:30N 53°33' E 009°59'0 0.0
2018-May-23 03:00N 53°33' E 009°59'0 0.0
2018-May-23 02:30N 53°33' E 009°59'0 0.0
2018-May-23 02:00N 53°33' E 009°59'0 0.0
2018-May-23 01:30N 53°33' E 009°59'0 0.0
2018-May-23 01:00N 53°33' E 009°59'0 0.0
2018-May-23 00:28N 53°33' E 009°59'0 0.0
2018-May-22 23:56N 53°33' E 009°59'0 0.0
2018-May-22 23:28N 53°33' E 009°59'0 0.0
2018-May-22 22:58N 53°33' E 009°59'0 0.0
2018-May-22 22:28N 53°33' E 009°59'0 0.0
2018-May-22 21:58N 53°33' E 009°59'0 0.0
2018-May-22 21:28N 53°33' E 009°59'0 0.0
2018-May-22 20:58N 53°33' E 009°59'0 0.0
2018-May-22 20:28N 53°33' E 009°59'0 0.0
2018-May-22 19:58N 53°33' E 009°59'0 0.0
2018-May-22 19:28N 53°33' E 009°59'0 0.0
2018-May-22 18:58N 53°33' E 009°59'0 0.0
2018-May-22 18:28N 53°33' E 009°59'0 0.0
2018-May-22 17:58N 53°33' E 009°59'0 0.0
2018-May-22 17:28N 53°33' E 009°59'0 0.0
2018-May-22 16:58N 53°33' E 009°59'0 0.0
2018-May-22 16:29N 53°33' E 009°59'0 0.0
2018-May-22 15:59N 53°33' E 009°59'0 0.0
2018-May-22 15:29N 53°33' E 009°59'0 0.0
2018-May-22 14:59N 53°33' E 009°59'0 0.0
2018-May-22 14:29N 53°33' E 009°59'0 0.0
2018-May-22 13:59N 53°33' E 009°59'0 0.0
2018-May-22 13:29N 53°33' E 009°59'0 0.0
2018-May-22 12:59N 53°33' E 009°59'0 0.0
2018-May-22 12:29N 53°33' E 009°59'0 0.0
2018-May-22 11:59N 53°33' E 009°59'0 0.0
2018-May-22 11:29N 53°33' E 009°59'0 0.0
2018-May-22 10:59N 53°33' E 009°59'0 0.0
2018-May-22 10:29N 53°33' E 009°59'0 0.0
2018-May-22 09:59N 53°33' E 009°59'0 0.0
2018-May-22 09:29N 53°33' E 009°59'0 0.0
2018-May-22 08:59N 53°33' E 009°59'0 0.0
2018-May-22 08:29N 53°33' E 009°59'0 0.0
2018-May-22 07:59N 53°33' E 009°59'0 0.0
2018-May-22 07:29N 53°33' E 009°59'0 0.0
2018-May-22 06:59N 53°33' E 009°59'0 0.0
2018-May-22 06:29N 53°33' E 009°59'0 0.0
2018-May-22 05:59N 53°33' E 009°59'0 0.0
2018-May-22 05:29N 53°33' E 009°59'0 0.0
2018-May-22 04:59N 53°33' E 009°59'0 0.0
2018-May-22 04:29N 53°33' E 009°59'0 0.0
2018-May-22 03:59N 53°33' E 009°59'0 0.0
2018-May-22 03:26N 53°33' E 009°59'0 0.0
2018-May-22 02:59N 53°33' E 009°59'0 0.0
2018-May-22 02:29N 53°33' E 009°59'0 0.0
2018-May-22 01:59N 53°33' E 009°59'0 0.0
2018-May-22 01:29N 53°33' E 009°59'0 0.0
2018-May-22 00:59N 53°33' E 009°59'0 0.0
2018-May-22 00:29N 53°33' E 009°59'0 0.0
2018-May-21 23:59N 53°33' E 009°59'0 0.0
2018-May-21 23:29N 53°33' E 009°59'0 0.0
2018-May-21 22:59N 53°33' E 009°59'0 0.0
2018-May-21 22:29N 53°33' E 009°59'0 0.0
2018-May-21 21:59N 53°33' E 009°59'0 0.0
2018-May-21 21:29N 53°33' E 009°59'0 0.0
2018-May-21 20:59N 53°33' E 009°59'0 0.0
2018-May-21 20:29N 53°33' E 009°59'0 0.0
2018-May-21 19:56N 53°33' E 009°59'0 0.0
2018-May-21 19:29N 53°33' E 009°59'0 0.0
2018-May-21 18:59N 53°33' E 009°59'0 0.0
2018-May-21 18:29N 53°33' E 009°59'0 0.0
2018-May-21 17:59N 53°33' E 009°59'0 0.0
2018-May-21 17:29N 53°33' E 009°59'0 0.0
2018-May-21 16:59N 53°33' E 009°59'0 0.0
2018-May-21 16:29N 53°33' E 009°59'0 0.0
2018-May-21 15:59N 53°33' E 009°59'0 0.0
2018-May-21 15:29N 53°33' E 009°59'0 0.0
2018-May-21 14:59N 53°33' E 009°59'0 0.0
2018-May-21 14:29N 53°33' E 009°59'0 0.0
2018-May-21 13:59N 53°33' E 009°59'0 0.0
2018-May-21 13:29N 53°33' E 009°59'0 0.0
2018-May-21 12:59N 53°33' E 009°59'0 0.0
2018-May-21 12:29N 53°33' E 009°59'0 0.0
2018-May-21 11:59N 53°33' E 009°59'0 0.0
2018-May-21 11:29N 53°33' E 009°59'0 0.0
2018-May-21 10:59N 53°33' E 009°59'0 0.0
2018-May-21 10:29N 53°33' E 009°59'0 0.0
2018-May-21 09:59N 53°33' E 009°59'0 0.0
2018-May-21 09:29N 53°33' E 009°59'0 0.0
2018-May-21 08:59N 53°33' E 009°59'0 0.0
2018-May-21 08:29N 53°33' E 009°59'0 0.0
2018-May-21 07:59N 53°33' E 009°59'0 0.0
2018-May-21 07:29N 53°33' E 009°59'0 0.0
2018-May-21 06:59N 53°33' E 009°59'0 0.0
2018-May-21 06:29N 53°33' E 009°59'0 0.0
2018-May-21 05:59N 53°33' E 009°59'0 0.0
2018-May-21 05:29N 53°33' E 009°59'0 0.0
2018-May-21 04:59N 53°33' E 009°59'0 0.0
2018-May-21 04:29N 53°33' E 009°59'0 0.0
2018-May-21 03:59N 53°33' E 009°59'0 0.0
2018-May-21 03:29N 53°33' E 009°59'0 0.0
2018-May-21 02:59N 53°33' E 009°59'0 0.0
2018-May-21 02:29N 53°33' E 009°59'0 0.0
2018-May-21 01:59N 53°33' E 009°59'0 0.0
2018-May-21 01:29N 53°33' E 009°59'0 0.0
2018-May-21 00:59N 53°33' E 009°59'0 0.0
2018-May-21 00:30N 53°33' E 009°59'0 0.0
2018-May-20 23:59N 53°33' E 009°59'0 0.0
2018-May-20 23:29N 53°33' E 009°59'0 0.0
2018-May-20 23:00N 53°33' E 009°59'0 0.0
2018-May-20 22:29N 53°33' E 009°59'0 0.0
2018-May-20 21:59N 53°33' E 009°59'0 0.0
2018-May-20 21:29N 53°33' E 009°59'0 0.0
2018-May-20 21:00N 53°33' E 009°59'0 0.0
2018-May-20 20:29N 53°33' E 009°59'0 0.0
2018-May-20 19:59N 53°33' E 009°59'0 0.0
2018-May-20 19:29N 53°33' E 009°59'0 0.0
2018-May-20 18:59N 53°33' E 009°59'0 0.0
2018-May-20 18:30N 53°33' E 009°59'0 0.0
2018-May-20 18:00N 53°33' E 009°59'0 0.0
2018-May-20 17:30N 53°33' E 009°59'0 0.0
2018-May-20 16:59N 53°33' E 009°59'0 0.0
2018-May-20 16:29N 53°33' E 009°59'0 0.0
2018-May-20 16:00N 53°33' E 009°59'0 0.0
2018-May-20 15:29N 53°33' E 009°59'0 0.0
2018-May-20 15:00N 53°33' E 009°59'0 0.0
2018-May-20 14:30N 53°33' E 009°59'0 0.2
2018-May-20 14:00N 53°33' E 009°59'1 2.8
2018-May-20 13:30N 53°33' E 009°57'3 5.9
2018-May-20 13:00N 53°33' E 009°52'3 5.4
2018-May-20 12:30N 53°33' E 009°47'0 0.5
2018-May-20 12:00N 53°34' E 009°47'3 5.6
2018-May-20 11:30N 53°33' E 009°52'3 5.6
2018-May-20 11:00N 53°33' E 009°56'2 3.7
2018-May-20 10:30N 53°32' E 009°59'0 0.6
2018-May-20 09:59N 53°33' E 009°59'0 0.0
2018-May-20 09:29N 53°33' E 009°59'0 0.0
2018-May-20 08:59N 53°33' E 009°59'0 0.0
2018-May-20 08:29N 53°33' E 009°59'0 0.0
2018-May-20 07:59N 53°33' E 009°59'0 0.1
2018-May-20 07:29N 53°33' E 009°59'0 0.0
2018-May-20 06:59N 53°33' E 009°59'0 0.0
2018-May-20 06:29N 53°33' E 009°59'0 0.0
2018-May-20 05:59N 53°33' E 009°59'0 0.0
2018-May-20 05:29N 53°33' E 009°59'0 0.0
2018-May-20 04:59N 53°33' E 009°59'0 0.0
2018-May-20 04:29N 53°33' E 009°59'0 0.0
2018-May-20 03:59N 53°33' E 009°59'0 0.0
2018-May-20 03:29N 53°33' E 009°59'0 0.0
2018-May-20 02:59N 53°33' E 009°59'0 0.0
2018-May-20 02:29N 53°33' E 009°59'0 0.0
2018-May-20 01:59N 53°33' E 009°59'0 0.0
2018-May-20 01:29N 53°33' E 009°59'0 0.0
2018-May-20 00:59N 53°33' E 009°59'0 0.0
2018-May-20 00:29N 53°33' E 009°59'0 0.0
2018-May-19 23:59N 53°33' E 009°59'0 0.0
2018-May-19 23:29N 53°33' E 009°59'0 0.0
2018-May-19 22:59N 53°33' E 009°59'0 0.0
2018-May-19 22:29N 53°33' E 009°59'0 0.1
2018-May-19 21:59N 53°33' E 009°59'0 0.1
2018-May-19 21:29N 53°33' E 009°59'0 0.0
2018-May-19 20:59N 53°33' E 009°59'0 0.0
2018-May-19 20:29N 53°33' E 009°59'0 0.0
2018-May-19 19:59N 53°33' E 009°59'0 0.0
2018-May-19 19:29N 53°33' E 009°59'0 0.0
2018-May-19 18:59N 53°33' E 009°59'0 0.0
2018-May-19 18:29N 53°33' E 009°59'0 0.0
2018-May-19 17:59N 53°33' E 009°59'0 0.0
2018-May-19 17:29N 53°33' E 009°59'0 0.0
2018-May-19 16:59N 53°33' E 009°59'0 0.0
2018-May-19 16:29N 53°33' E 009°59'0 0.0
2018-May-19 15:59N 53°33' E 009°59'0 0.0
2018-May-19 15:29N 53°33' E 009°59'0 0.0
2018-May-19 14:59N 53°33' E 009°59'0 0.0
2018-May-19 14:29N 53°33' E 009°59'0 0.0
2018-May-19 13:59N 53°33' E 009°59'0 0.0
2018-May-19 13:29N 53°33' E 009°59'0 0.2
2018-May-19 12:59N 53°33' E 009°59'1 2.5
2018-May-19 12:30N 53°33' E 009°57'3 5.6
2018-May-19 12:00N 53°33' E 009°52'3 5.2
2018-May-19 11:30N 53°33' E 009°48'3 5.1
2018-May-19 11:00N 53°34' E 009°44'1 2.9
2018-May-19 10:30N 53°34' E 009°41'4 7.7
2018-May-19 10:00N 53°33' E 009°48'4 7.6
2018-May-19 09:30N 53°33' E 009°54'3 5.6
2018-May-19 08:59N 53°33' E 009°59'0 0.0
2018-May-19 08:29N 53°33' E 009°59'0 0.0
2018-May-19 07:59N 53°33' E 009°59'0 0.0
2018-May-19 07:29N 53°33' E 009°59'0 0.0
2018-May-19 06:59N 53°33' E 009°59'0 0.0
2018-May-19 06:29N 53°33' E 009°59'0 0.2
2018-May-19 05:59N 53°33' E 009°59'0 0.0
2018-May-19 05:29N 53°33' E 009°59'0 0.0
2018-May-19 04:59N 53°33' E 009°59'0 0.0
2018-May-19 04:29N 53°33' E 009°59'0 0.0
2018-May-19 03:59N 53°33' E 009°59'0 0.0
2018-May-19 03:29N 53°33' E 009°59'0 0.0
2018-May-19 02:59N 53°33' E 009°59'0 0.0
2018-May-19 02:29N 53°33' E 009°59'0 0.0
2018-May-19 01:59N 53°33' E 009°59'0 0.0
2018-May-19 01:29N 53°33' E 009°59'0 0.0
2018-May-19 00:59N 53°33' E 009°59'0 0.0
2018-May-19 00:29N 53°33' E 009°59'0 0.0
2018-May-18 23:59N 53°33' E 009°59'0 0.0
2018-May-18 23:29N 53°33' E 009°59'0 0.0
2018-May-18 22:59N 53°33' E 009°59'0 0.0
2018-May-18 22:29N 53°33' E 009°59'0 0.0
2018-May-18 21:59N 53°33' E 009°59'0 0.0
2018-May-18 21:29N 53°33' E 009°59'0 0.0
2018-May-18 20:59N 53°33' E 009°59'0 0.0
2018-May-18 20:29N 53°33' E 009°59'0 0.0
2018-May-18 19:59N 53°33' E 009°59'0 0.0
2018-May-18 19:29N 53°33' E 009°59'0 0.0
2018-May-18 18:59N 53°33' E 009°59'0 0.0
2018-May-18 18:29N 53°33' E 009°59'0 0.0
2018-May-18 17:59N 53°33' E 009°59'0 0.0
2018-May-18 17:29N 53°33' E 009°59'0 0.0
2018-May-18 16:59N 53°33' E 009°59'0 0.0
2018-May-18 16:29N 53°33' E 009°59'0 0.0
2018-May-18 15:59N 53°33' E 009°59'0 0.0
2018-May-18 15:29N 53°33' E 009°59'0 0.0
2018-May-18 14:59N 53°33' E 009°59'0 0.0
2018-May-18 14:29N 53°33' E 009°59'0 0.0
2018-May-18 13:59N 53°33' E 009°59'0 0.0
2018-May-18 13:29N 53°33' E 009°59'0 0.0
2018-May-18 12:59N 53°33' E 009°59'0 0.0
2018-May-18 12:29N 53°33' E 009°59'0 0.0
2018-May-18 11:59N 53°33' E 009°59'0 0.0
2018-May-18 11:29N 53°33' E 009°59'0 0.1
2018-May-18 11:00N 53°33' E 009°59'2 4.1
2018-May-18 10:30N 53°31' E 009°57'1 1.1
2018-May-18 09:59N 53°30' E 009°57'0 0.0
2018-May-18 09:29N 53°30' E 009°57'0 0.0
2018-May-18 08:59N 53°30' E 009°57'1 2.9
2018-May-18 08:31N 53°32' E 009°56'2 3.1
2018-May-18 07:58N 53°33' E 009°59'0 0.0
2018-May-18 07:28N 53°33' E 009°59'0 0.0
2018-May-18 06:58N 53°33' E 009°59'0 0.0
2018-May-18 06:28N 53°33' E 009°59'0 0.0
2018-May-18 05:58N 53°33' E 009°59'0 0.0
2018-May-18 05:28N 53°33' E 009°59'0 0.0
2018-May-18 04:58N 53°33' E 009°59'0 0.0
2018-May-18 04:28N 53°33' E 009°59'0 0.0
2018-May-18 03:58N 53°33' E 009°59'0 0.0
2018-May-18 03:28N 53°33' E 009°59'0 0.0
2018-May-18 02:58N 53°33' E 009°59'0 0.0
2018-May-18 02:28N 53°33' E 009°59'0 0.0
2018-May-18 01:58N 53°33' E 009°59'0 0.0
2018-May-18 01:28N 53°33' E 009°59'0 0.0
2018-May-18 00:58N 53°33' E 009°59'0 0.0
2018-May-18 00:28N 53°33' E 009°59'0 0.0
2018-May-17 23:58N 53°33' E 009°59'0 0.0
2018-May-17 23:28N 53°33' E 009°59'0 0.0
2018-May-17 22:58N 53°33' E 009°59'0 0.0
2018-May-17 22:28N 53°33' E 009°59'0 0.0
2018-May-17 21:58N 53°33' E 009°59'0 0.0
2018-May-17 21:28N 53°33' E 009°59'0 0.0
2018-May-17 20:58N 53°33' E 009°59'0 0.0
2018-May-17 20:28N 53°33' E 009°59'0 0.0
2018-May-17 19:58N 53°33' E 009°59'0 0.0
2018-May-17 19:28N 53°33' E 009°59'0 0.0
2018-May-17 18:58N 53°33' E 009°59'0 0.0
2018-May-17 18:28N 53°33' E 009°59'0 0.0
2018-May-17 17:58N 53°33' E 009°59'0 0.0
2018-May-17 17:28N 53°33' E 009°59'0 0.0
2018-May-17 16:58N 53°33' E 009°59'0 0.0
2018-May-17 16:28N 53°33' E 009°59'0 0.0
2018-May-17 15:58N 53°33' E 009°59'0 0.0
2018-May-17 15:28N 53°33' E 009°59'0 0.0
2018-May-17 14:58N 53°33' E 009°59'0 0.0
2018-May-17 14:28N 53°33' E 009°59'0 0.0
2018-May-17 13:58N 53°33' E 009°59'0 0.0
2018-May-17 13:28N 53°33' E 009°59'0 0.0
2018-May-17 12:58N 53°33' E 009°59'0 0.0
2018-May-17 12:28N 53°33' E 009°59'0 0.0
2018-May-17 11:58N 53°33' E 009°59'0 0.0
2018-May-17 11:28N 53°33' E 009°59'0 0.0
2018-May-17 10:58N 53°33' E 009°59'0 0.0
2018-May-17 10:28N 53°33' E 009°59'0 0.0
2018-May-17 09:58N 53°33' E 009°59'0 0.0
2018-May-17 09:28N 53°33' E 009°59'0 0.0
2018-May-17 08:58N 53°33' E 009°59'0 0.0
2018-May-17 08:28N 53°33' E 009°59'0 0.0
2018-May-17 07:55N 53°33' E 009°59'0 0.0
2018-May-17 07:28N 53°33' E 009°59'0 0.0
2018-May-17 06:58N 53°33' E 009°59'0 0.0
2018-May-17 06:28N 53°33' E 009°59'0 0.0
2018-May-17 05:58N 53°33' E 009°59'0 0.0
2018-May-17 05:28N 53°33' E 009°59'0 0.0
2018-May-17 04:58N 53°33' E 009°59'0 0.0
2018-May-17 04:28N 53°33' E 009°59'0 0.0
2018-May-17 03:58N 53°33' E 009°59'0 0.0
2018-May-17 03:28N 53°33' E 009°59'0 0.0
2018-May-17 02:58N 53°33' E 009°59'0 0.0
2018-May-17 02:28N 53°33' E 009°59'0 0.0
2018-May-17 01:58N 53°33' E 009°59'0 0.0
2018-May-17 01:28N 53°33' E 009°59'0 0.0
2018-May-17 00:58N 53°33' E 009°59'0 0.0
2018-May-17 00:28N 53°33' E 009°59'0 0.0
2018-May-16 23:58N 53°33' E 009°59'0 0.0
2018-May-16 23:28N 53°33' E 009°59'0 0.0
2018-May-16 22:58N 53°33' E 009°59'0 0.0
2018-May-16 22:25N 53°33' E 009°59'0 0.0
2018-May-16 21:58N 53°33' E 009°59'0 0.0
2018-May-16 21:28N 53°33' E 009°59'0 0.0
2018-May-16 20:58N 53°33' E 009°59'0 0.0
2018-May-16 20:28N 53°33' E 009°59'0 0.0
2018-May-16 19:58N 53°33' E 009°59'0 0.5
2018-May-16 19:30N 53°32' E 009°58'2 4.1
2018-May-16 19:00N 53°32' E 009°55'3 5.6
2018-May-16 18:30N 53°33' E 009°50'1 2.5
2018-May-16 18:00N 53°33' E 009°48'1 2.4
2018-May-16 17:30N 53°34' E 009°46'2 3.0
2018-May-16 17:00N 53°34' E 009°44'2 4.9
2018-May-16 16:30N 53°33' E 009°48'2 4.6
2018-May-16 16:00N 53°33' E 009°52'2 4.9
2018-May-16 15:30N 53°33' E 009°56'2 4.5
2018-May-16 15:00N 53°32' E 009°59'1 1.1
2018-May-16 14:30N 53°33' E 009°59'0 0.0
2018-May-16 14:00N 53°33' E 009°59'0 0.0
2018-May-16 13:30N 53°33' E 009°59'0 0.0
2018-May-16 13:00N 53°33' E 009°59'0 0.0
2018-May-16 12:30N 53°33' E 009°59'0 0.0
2018-May-16 12:00N 53°33' E 009°59'0 0.0
2018-May-16 11:30N 53°33' E 009°59'0 0.0
2018-May-16 11:00N 53°33' E 009°59'0 0.0
2018-May-16 10:30N 53°33' E 009°59'0 0.0
2018-May-16 10:00N 53°33' E 009°59'0 0.0
2018-May-16 09:30N 53°33' E 009°59'0 0.0
2018-May-16 09:00N 53°33' E 009°59'0 0.0
2018-May-16 08:30N 53°33' E 009°59'0 0.0
2018-May-16 08:00N 53°33' E 009°59'0 0.0
2018-May-16 07:30N 53°33' E 009°59'0 0.0
2018-May-16 07:00N 53°33' E 009°59'0 0.0
2018-May-16 06:30N 53°33' E 009°59'0 0.0
2018-May-16 06:00N 53°33' E 009°59'0 0.0
2018-May-16 05:30N 53°33' E 009°59'0 0.0
2018-May-16 05:00N 53°33' E 009°59'0 0.0
2018-May-16 04:30N 53°33' E 009°59'0 0.0
2018-May-16 04:00N 53°33' E 009°59'0 0.0
2018-May-16 03:30N 53°33' E 009°59'0 0.0
2018-May-16 03:00N 53°33' E 009°59'0 0.0
2018-May-16 02:30N 53°33' E 009°59'0 0.0
2018-May-16 02:00N 53°33' E 009°59'0 0.0
2018-May-16 01:30N 53°33' E 009°59'0 0.0
2018-May-16 01:00N 53°33' E 009°59'0 0.0
2018-May-16 00:30N 53°33' E 009°59'0 0.0
2018-May-16 00:00N 53°33' E 009°59'0 0.0
2018-May-15 23:30N 53°33' E 009°59'0 0.0
2018-May-15 23:00N 53°33' E 009°59'0 0.0
2018-May-15 22:30N 53°33' E 009°59'0 0.0
2018-May-15 22:00N 53°33' E 009°59'0 0.0
2018-May-15 21:30N 53°33' E 009°59'0 0.0
2018-May-15 21:00N 53°33' E 009°59'0 0.0
2018-May-15 20:30N 53°33' E 009°59'0 0.0
2018-May-15 20:00N 53°33' E 009°59'0 0.0
2018-May-15 19:30N 53°33' E 009°59'0 0.0
2018-May-15 19:00N 53°33' E 009°59'0 0.0
2018-May-15 18:30N 53°33' E 009°59'0 0.0
2018-May-15 18:00N 53°33' E 009°59'0 0.0
2018-May-15 17:31N 53°33' E 009°59'0 0.0
2018-May-15 17:00N 53°33' E 009°59'0 0.0
2018-May-15 16:31N 53°33' E 009°59'0 0.0
2018-May-15 16:00N 53°33' E 009°59'0 0.0
2018-May-15 15:30N 53°33' E 009°59'0 0.0
2018-May-15 15:01N 53°33' E 009°59'0 0.0
2018-May-15 14:30N 53°33' E 009°59'0 0.0
2018-May-15 14:00N 53°33' E 009°59'0 0.0
2018-May-15 13:30N 53°33' E 009°59'0 0.0
2018-May-15 13:00N 53°33' E 009°59'0 0.0
2018-May-15 12:30N 53°33' E 009°59'0 0.0
2018-May-15 12:00N 53°33' E 009°59'0 0.0
2018-May-15 11:30N 53°33' E 009°59'0 0.0
2018-May-15 11:00N 53°33' E 009°59'0 0.0
2018-May-15 10:30N 53°33' E 009°59'0 0.0
2018-May-15 10:00N 53°33' E 009°59'0 0.0
2018-May-15 09:30N 53°33' E 009°59'0 0.0
2018-May-15 09:00N 53°33' E 009°59'0 0.0
2018-May-15 08:30N 53°33' E 009°59'0 0.0
2018-May-15 08:00N 53°33' E 009°59'0 0.0
2018-May-15 07:30N 53°33' E 009°59'0 0.0
2018-May-15 07:00N 53°33' E 009°59'0 0.0
2018-May-15 06:30N 53°33' E 009°59'0 0.0
2018-May-15 06:00N 53°33' E 009°59'0 0.0
2018-May-15 05:30N 53°33' E 009°59'0 0.0
2018-May-15 05:00N 53°33' E 009°59'0 0.0
2018-May-15 04:30N 53°33' E 009°59'0 0.0
2018-May-15 04:00N 53°33' E 009°59'0 0.0
2018-May-15 03:30N 53°33' E 009°59'0 0.0
2018-May-15 03:00N 53°33' E 009°59'0 0.0
2018-May-15 02:30N 53°33' E 009°59'0 0.0
2018-May-15 02:00N 53°33' E 009°59'0 0.0
2018-May-15 01:30N 53°33' E 009°59'0 0.0
2018-May-15 01:00N 53°33' E 009°59'0 0.0
2018-May-15 00:30N 53°33' E 009°59'0 0.0
2018-May-15 00:00N 53°33' E 009°59'0 0.0
2018-May-14 23:30N 53°33' E 009°59'0 0.0
2018-May-14 23:00N 53°33' E 009°59'0 0.0
2018-May-14 22:30N 53°33' E 009°59'0 0.0
2018-May-14 22:00N 53°33' E 009°59'0 0.0
2018-May-14 21:30N 53°33' E 009°59'0 0.0
2018-May-14 21:00N 53°33' E 009°59'0 0.0
2018-May-14 20:30N 53°33' E 009°59'0 0.0
2018-May-14 20:00N 53°33' E 009°59'0 0.0
2018-May-14 19:30N 53°33' E 009°59'0 0.0
2018-May-14 19:00N 53°33' E 009°59'0 0.0
2018-May-14 18:30N 53°33' E 009°59'0 0.0
2018-May-14 18:00N 53°33' E 009°59'0 0.0
2018-May-14 17:30N 53°33' E 009°59'0 0.0
2018-May-14 17:00N 53°33' E 009°59'0 0.0
2018-May-14 16:30N 53°33' E 009°59'0 0.0
2018-May-14 16:00N 53°33' E 009°59'0 0.0
2018-May-14 15:30N 53°33' E 009°59'0 0.0
2018-May-14 15:00N 53°33' E 009°59'0 0.0
2018-May-14 14:30N 53°33' E 009°59'0 0.0
2018-May-14 14:00N 53°33' E 009°59'0 0.0
2018-May-14 13:30N 53°33' E 009°59'0 0.0
2018-May-14 13:00N 53°33' E 009°59'0 0.0
2018-May-14 12:30N 53°33' E 009°59'0 0.0
2018-May-14 12:00N 53°33' E 009°59'0 0.0
2018-May-14 11:30N 53°33' E 009°59'0 0.0
2018-May-14 11:00N 53°33' E 009°59'0 0.0
2018-May-14 10:30N 53°33' E 009°59'0 0.0
2018-May-14 10:00N 53°33' E 009°59'0 0.0
2018-May-14 09:30N 53°33' E 009°59'0 0.0
2018-May-14 09:00N 53°33' E 009°59'0 0.0
2018-May-14 08:30N 53°33' E 009°59'0 0.0
2018-May-14 08:00N 53°33' E 009°59'0 0.0
2018-May-14 07:30N 53°33' E 009°59'0 0.0
2018-May-14 07:00N 53°33' E 009°59'0 0.0
2018-May-14 06:30N 53°33' E 009°59'0 0.0
2018-May-14 06:00N 53°33' E 009°59'0 0.0
2018-May-14 05:30N 53°33' E 009°59'0 0.0
2018-May-14 05:00N 53°33' E 009°59'0 0.0
2018-May-14 04:30N 53°33' E 009°59'0 0.0
2018-May-14 04:00N 53°33' E 009°59'0 0.0
2018-May-14 03:30N 53°33' E 009°59'0 0.0
2018-May-14 03:00N 53°33' E 009°59'0 0.0
2018-May-14 02:30N 53°33' E 009°59'0 0.0
2018-May-14 02:00N 53°33' E 009°59'0 0.0
2018-May-14 01:30N 53°33' E 009°59'0 0.0
2018-May-14 01:00N 53°33' E 009°59'0 0.0
2018-May-14 00:30N 53°33' E 009°59'0 0.0
2018-May-14 00:00N 53°33' E 009°59'0 0.0
2018-May-13 23:30N 53°33' E 009°59'0 0.0
2018-May-13 23:01N 53°33' E 009°59'0 0.0
2018-May-13 22:30N 53°33' E 009°59'0 0.0
2018-May-13 22:00N 53°33' E 009°59'  

Dump ship's entire track history